createdAt,value
2017-07-04T00:00:29.096Z,74.30
2017-07-04T00:02:55.661Z,74.30
2017-07-04T00:05:22.155Z,74.50
2017-07-04T00:07:49.388Z,74.80
2017-07-04T00:10:15.924Z,74.90
2017-07-04T00:12:43.142Z,75.60
2017-07-04T00:15:10.425Z,74.80
2017-07-04T00:17:37.642Z,75.20
2017-07-04T00:20:04.114Z,75.20
2017-07-04T00:22:31.398Z,75.30
2017-07-04T00:24:57.862Z,75.30
2017-07-04T00:27:24.486Z,75.40
2017-07-04T00:29:50.991Z,76.00
2017-07-04T00:32:17.472Z,75.30
2017-07-04T00:34:43.986Z,75.60
2017-07-04T00:37:10.473Z,75.50
2017-07-04T00:39:36.980Z,75.20
2017-07-04T00:42:03.474Z,75.20
2017-07-04T00:44:30.009Z,75.70
2017-07-04T00:46:56.527Z,75.70
2017-07-04T00:49:23.047Z,75.50
2017-07-04T00:51:49.517Z,75.00
2017-07-04T00:54:16.058Z,74.90
2017-07-04T00:56:42.543Z,75.20
2017-07-04T00:59:09.025Z,75.10
2017-07-04T01:01:35.549Z,75.00
2017-07-04T01:04:02.054Z,74.90
2017-07-04T01:06:28.529Z,75.10
2017-07-04T01:08:55.055Z,75.00
2017-07-04T01:11:21.563Z,74.40
2017-07-04T01:13:48.086Z,74.50
2017-07-04T01:16:14.571Z,74.90
2017-07-04T01:18:41.097Z,74.80
2017-07-04T01:21:07.578Z,74.90
2017-07-04T01:23:34.067Z,75.10
2017-07-04T01:26:00.554Z,75.20
2017-07-04T01:28:27.027Z,75.10
2017-07-04T01:30:53.542Z,74.90
2017-07-04T01:33:20.058Z,75.10
2017-07-04T01:35:46.557Z,75.40
2017-07-04T01:38:13.081Z,75.50
2017-07-04T01:40:40.285Z,75.30
2017-07-04T01:43:06.832Z,75.30
2017-07-04T01:45:33.354Z,75.50
2017-07-04T01:47:59.989Z,75.50
2017-07-04T01:50:26.492Z,75.50
2017-07-04T01:52:53.017Z,75.90
2017-07-04T01:55:19.528Z,76.00
2017-07-04T01:57:45.999Z,76.00
2017-07-04T02:00:12.603Z,76.00
2017-07-04T02:02:39.821Z,76.00
2017-07-04T02:05:06.394Z,75.90
2017-07-04T02:07:33.655Z,76.30
2017-07-04T02:10:00.180Z,76.30
2017-07-04T02:12:27.495Z,76.60
2017-07-04T02:14:54.000Z,76.50
2017-07-04T02:17:20.459Z,76.70
2017-07-04T02:19:46.959Z,76.50
2017-07-04T02:22:13.439Z,76.60
2017-07-04T02:24:39.973Z,77.00
2017-07-04T02:27:07.180Z,77.80
2017-07-04T02:29:33.643Z,77.00
2017-07-04T02:32:00.129Z,77.10
2017-07-04T02:34:26.613Z,76.80
2017-07-04T02:36:53.126Z,76.90
2017-07-04T02:39:19.605Z,76.80
2017-07-04T02:41:46.812Z,76.30
2017-07-04T02:44:13.371Z,76.30
2017-07-04T02:46:40.571Z,76.30
2017-07-04T02:49:07.103Z,76.70
2017-07-04T02:51:33.570Z,76.50
2017-07-04T02:54:00.092Z,76.30
2017-07-04T02:56:26.551Z,76.50
2017-07-04T02:58:53.044Z,76.60
2017-07-04T03:01:19.666Z,76.50
2017-07-04T03:03:46.143Z,76.40
2017-07-04T03:06:12.642Z,76.40
2017-07-04T03:08:39.115Z,76.20
2017-07-04T03:11:05.596Z,75.80
2017-07-04T03:13:32.312Z,75.80
2017-07-04T03:15:58.791Z,75.80
2017-07-04T03:18:25.277Z,75.70
2017-07-04T03:20:51.755Z,75.60
2017-07-04T03:23:18.240Z,75.40
2017-07-04T03:25:44.766Z,75.30
2017-07-04T03:28:11.994Z,75.20
2017-07-04T03:30:38.461Z,75.20
2017-07-04T03:33:05.053Z,75.00
2017-07-04T03:35:31.554Z,74.90
2017-07-04T03:37:58.063Z,74.80
2017-07-04T03:40:24.539Z,74.60
2017-07-04T03:42:51.070Z,74.50
2017-07-04T03:45:17.545Z,74.50
2017-07-04T03:47:44.747Z,75.30
2017-07-04T03:50:11.266Z,74.60
2017-07-04T03:52:37.715Z,74.50
2017-07-04T03:55:04.229Z,74.60
2017-07-04T03:57:30.746Z,74.20
2017-07-04T03:59:57.223Z,74.20
2017-07-04T04:02:23.822Z,74.20
2017-07-04T04:04:50.321Z,74.20
2017-07-04T04:07:17.573Z,74.20
2017-07-04T04:09:44.812Z,74.30
2017-07-04T04:12:12.076Z,75.00
2017-07-04T04:14:39.328Z,74.40
2017-07-04T04:17:06.544Z,74.40
2017-07-04T04:19:33.068Z,74.40
2017-07-04T04:21:59.545Z,74.40
2017-07-04T04:24:26.769Z,74.40
2017-07-04T04:26:53.284Z,74.40
2017-07-04T04:29:19.775Z,74.40
2017-07-04T04:31:46.355Z,74.80
2017-07-04T04:34:12.823Z,74.80
2017-07-04T04:36:40.175Z,74.50
2017-07-04T04:39:06.696Z,74.50
2017-07-04T04:41:33.194Z,74.70
2017-07-04T04:43:59.713Z,74.50
2017-07-04T04:46:26.213Z,74.50
2017-07-04T04:48:53.469Z,74.50
2017-07-04T04:51:19.941Z,73.80
2017-07-04T04:53:46.516Z,73.40
2017-07-04T04:56:13.735Z,73.40
2017-07-04T04:58:40.217Z,73.40
2017-07-04T05:01:07.107Z,73.10
2017-07-04T05:03:33.601Z,72.20
2017-07-04T05:06:00.163Z,72.00
2017-07-04T05:08:26.666Z,72.50
2017-07-04T05:10:53.151Z,71.70
2017-07-04T05:13:19.650Z,72.10
2017-07-04T05:15:46.181Z,72.00
2017-07-04T05:18:12.738Z,71.30
2017-07-04T05:20:39.230Z,71.70
2017-07-04T05:23:06.438Z,70.50
2017-07-04T05:25:32.937Z,70.60
2017-07-04T05:27:59.406Z,70.40
2017-07-04T05:30:25.921Z,70.10
2017-07-04T05:32:52.394Z,69.80
2017-07-04T05:35:19.691Z,70.00
2017-07-04T05:37:46.176Z,69.30
2017-07-04T05:40:12.636Z,69.80
2017-07-04T05:42:39.183Z,70.00
2017-07-04T05:45:05.673Z,69.60
2017-07-04T05:47:32.934Z,69.60
2017-07-04T05:49:59.401Z,69.60
2017-07-04T05:52:25.968Z,68.90
2017-07-04T05:54:52.462Z,69.70
2017-07-04T05:57:18.956Z,69.80
2017-07-04T05:59:46.219Z,69.70
2017-07-04T06:02:12.727Z,69.70
2017-07-04T06:04:39.427Z,68.80
2017-07-04T06:07:05.925Z,69.50
2017-07-04T06:09:32.421Z,69.40
2017-07-04T06:11:58.941Z,67.60
2017-07-04T06:14:25.422Z,68.20
2017-07-04T06:16:51.996Z,67.70
2017-07-04T06:19:18.535Z,66.70
2017-07-04T06:21:45.023Z,66.60
2017-07-04T06:24:11.698Z,67.40
2017-07-04T06:26:38.175Z,66.10
2017-07-04T06:29:05.397Z,66.50
2017-07-04T06:31:31.932Z,66.40
2017-07-04T06:33:58.399Z,66.80
2017-07-04T06:36:25.642Z,66.70
2017-07-04T06:38:52.881Z,65.80
2017-07-04T06:41:19.334Z,65.80
2017-07-04T06:43:45.852Z,65.60
2017-07-04T06:46:13.048Z,65.10
2017-07-04T06:48:39.513Z,64.30
2017-07-04T06:51:06.018Z,64.60
2017-07-04T06:53:32.472Z,64.00
2017-07-04T06:55:58.988Z,63.30
2017-07-04T06:58:25.462Z,62.50
2017-07-04T07:00:52.720Z,61.50
2017-07-04T07:03:19.951Z,60.80
2017-07-04T07:05:46.418Z,60.80
2017-07-04T07:08:12.928Z,59.80
2017-07-04T07:10:40.137Z,58.90
2017-07-04T07:13:06.878Z,58.90
2017-07-04T07:15:33.461Z,58.10
2017-07-04T07:18:00.728Z,57.80
2017-07-04T07:20:27.228Z,58.50
2017-07-04T07:22:53.693Z,56.90
2017-07-04T07:25:20.219Z,56.70
2017-07-04T07:27:46.702Z,56.90
2017-07-04T07:30:13.190Z,55.30
2017-07-04T07:32:39.914Z,55.50
2017-07-04T07:35:06.419Z,53.00
2017-07-04T07:37:32.955Z,53.80
2017-07-04T07:39:59.471Z,53.70
2017-07-04T07:42:25.979Z,54.40
2017-07-04T07:44:52.491Z,54.60
2017-07-04T07:47:19.023Z,55.80
2017-07-04T07:49:45.522Z,55.90
2017-07-04T07:52:12.092Z,56.30
2017-07-04T07:54:38.742Z,56.80
2017-07-04T07:57:05.256Z,58.20
2017-07-04T07:59:31.760Z,58.00
2017-07-04T08:01:58.266Z,57.80
2017-07-04T08:04:24.745Z,58.50
2017-07-04T08:06:52.022Z,59.80
2017-07-04T08:09:18.519Z,59.80
2017-07-04T08:11:45.871Z,59.80
2017-07-04T08:14:13.101Z,60.10
2017-07-04T08:16:39.595Z,60.00
2017-07-04T08:19:06.150Z,59.60
2017-07-04T08:21:32.599Z,61.00
2017-07-04T08:23:59.084Z,62.30
2017-07-04T08:26:25.561Z,61.70
2017-07-04T08:28:52.068Z,61.30
2017-07-04T08:31:18.556Z,61.80
2017-07-04T08:33:45.781Z,60.40
2017-07-04T08:36:12.345Z,60.40
2017-07-04T08:38:39.572Z,61.20
2017-07-04T08:41:06.062Z,61.20
2017-07-04T08:43:32.554Z,60.60
2017-07-04T08:45:59.780Z,58.70
2017-07-04T08:48:26.678Z,58.60
2017-07-04T08:50:53.126Z,58.80
2017-07-04T08:53:19.630Z,59.60
2017-07-04T08:55:46.123Z,59.60
2017-07-04T08:58:12.639Z,58.20
2017-07-04T09:00:39.129Z,57.30
2017-07-04T09:03:05.661Z,56.50
2017-07-04T09:05:32.137Z,54.80
2017-07-04T09:07:58.665Z,52.80
2017-07-04T09:10:25.166Z,52.50
2017-07-04T09:12:51.693Z,49.70
2017-07-04T09:15:18.198Z,49.50
2017-07-04T09:17:44.673Z,48.80
2017-07-04T09:20:11.254Z,47.10
2017-07-04T09:22:37.701Z,45.40
2017-07-04T09:25:04.902Z,44.40
2017-07-04T09:27:31.431Z,43.70
2017-07-04T09:29:57.889Z,43.40
2017-07-04T09:32:24.399Z,41.70
2017-07-04T09:34:50.858Z,42.30
2017-07-04T09:37:17.475Z,41.50
2017-07-04T09:39:43.950Z,41.00
2017-07-04T09:42:11.183Z,40.30
2017-07-04T09:44:37.714Z,40.10
2017-07-04T09:47:04.189Z,39.70
2017-07-04T09:49:30.677Z,38.60
2017-07-04T09:51:57.177Z,37.80
2017-07-04T09:54:23.720Z,38.30
2017-07-04T09:56:50.253Z,38.10
2017-07-04T09:59:16.722Z,39.70
2017-07-04T10:01:43.228Z,39.40
2017-07-04T10:04:09.719Z,37.60
2017-07-04T10:06:36.246Z,38.50
2017-07-04T10:09:02.843Z,39.80
2017-07-04T10:11:29.293Z,38.40
2017-07-04T10:13:55.786Z,38.30
2017-07-04T10:16:22.267Z,40.70
2017-07-04T10:18:49.469Z,39.20
2017-07-04T10:21:16.046Z,39.10
2017-07-04T10:23:43.275Z,43.40
2017-07-04T10:26:09.743Z,43.30
2017-07-04T10:28:36.967Z,43.50
2017-07-04T10:31:03.513Z,43.40
2017-07-04T10:33:30.743Z,45.90
2017-07-04T10:35:57.206Z,45.80
2017-07-04T10:38:24.467Z,48.50
2017-07-04T10:40:50.952Z,48.40
2017-07-04T10:43:17.444Z,47.20
2017-07-04T10:45:43.965Z,48.70
2017-07-04T10:48:10.436Z,47.50
2017-07-04T10:50:36.939Z,47.90
2017-07-04T10:53:03.473Z,47.00
2017-07-04T10:55:29.971Z,46.50
2017-07-04T10:57:57.187Z,47.40
2017-07-04T11:00:23.713Z,47.40
2017-07-04T11:02:50.211Z,48.40
2017-07-04T11:05:16.988Z,48.10
2017-07-04T11:07:43.456Z,47.80
2017-07-04T11:10:10.677Z,49.30
2017-07-04T11:12:37.176Z,48.70
2017-07-04T11:15:03.684Z,49.60
2017-07-04T11:17:30.218Z,47.80
2017-07-04T11:19:57.450Z,50.70
2017-07-04T11:22:24.715Z,51.30
2017-07-04T11:24:52.035Z,51.10
2017-07-04T11:27:18.540Z,51.00
2017-07-04T11:29:45.003Z,50.70
2017-07-04T11:32:11.496Z,50.60
2017-07-04T11:34:37.954Z,50.40
2017-07-04T11:37:04.473Z,49.80
2017-07-04T11:39:30.982Z,51.20
2017-07-04T11:41:57.468Z,50.80
2017-07-04T11:44:25.071Z,50.20
2017-07-04T11:46:51.558Z,50.30
2017-07-04T11:49:18.031Z,50.40
2017-07-04T11:51:44.546Z,51.20
2017-07-04T11:54:12.268Z,51.60
2017-07-04T11:56:38.815Z,51.60
2017-07-04T11:59:05.314Z,51.10
2017-07-04T12:01:31.789Z,50.60
2017-07-04T12:03:58.317Z,51.00
2017-07-04T12:06:24.788Z,48.90
2017-07-04T12:08:51.270Z,49.60
2017-07-04T12:11:17.773Z,49.30
2017-07-04T12:13:44.247Z,48.30
2017-07-04T12:16:10.788Z,48.90
2017-07-04T12:18:37.243Z,49.50
2017-07-04T12:21:03.744Z,50.10
2017-07-04T12:23:30.281Z,50.80
2017-07-04T12:25:56.767Z,50.70
2017-07-04T12:28:23.246Z,49.90
2017-07-04T12:30:49.854Z,50.00
2017-07-04T12:33:16.330Z,49.40
2017-07-04T12:35:42.856Z,49.80
2017-07-04T12:38:09.398Z,49.20
2017-07-04T12:40:36.614Z,50.10
2017-07-04T12:43:03.142Z,50.10
2017-07-04T12:45:29.638Z,48.40
2017-07-04T12:47:56.148Z,49.50
2017-07-04T12:50:23.397Z,48.10
2017-07-04T12:52:50.614Z,49.70
2017-07-04T12:55:17.080Z,49.20
2017-07-04T12:57:44.342Z,50.30
2017-07-04T13:00:10.835Z,49.50
2017-07-04T13:02:37.303Z,48.30
2017-07-04T13:05:04.565Z,49.20
2017-07-04T13:07:31.057Z,48.50
2017-07-04T13:09:57.764Z,49.30
2017-07-04T13:12:24.266Z,48.50
2017-07-04T13:14:51.469Z,47.70
2017-07-04T13:17:17.985Z,47.60
2017-07-04T13:19:44.465Z,48.00
2017-07-04T13:22:11.705Z,47.10
2017-07-04T13:24:38.266Z,47.10
2017-07-04T13:27:04.836Z,46.90
2017-07-04T13:29:31.312Z,46.80
2017-07-04T13:31:57.789Z,47.50
2017-07-04T13:34:24.312Z,48.00
2017-07-04T13:36:50.806Z,48.30
2017-07-04T13:39:17.299Z,48.70
2017-07-04T13:41:44.357Z,49.70
2017-07-04T13:44:10.885Z,50.80
2017-07-04T13:46:37.416Z,49.00
2017-07-04T13:49:03.893Z,49.00
2017-07-04T13:51:31.161Z,48.20
2017-07-04T13:53:57.658Z,48.20
2017-07-04T13:56:24.120Z,47.60
2017-07-04T13:58:51.363Z,49.00
2017-07-04T14:01:18.619Z,50.00
2017-07-04T14:03:45.914Z,50.00
2017-07-04T14:06:12.435Z,50.00
2017-07-04T14:08:38.974Z,49.50
2017-07-04T14:11:05.482Z,50.40
2017-07-04T14:13:31.972Z,50.00
2017-07-04T14:15:58.546Z,49.60
2017-07-04T14:18:25.027Z,50.00
2017-07-04T14:20:51.541Z,50.30
2017-07-04T14:23:18.108Z,48.90
2017-07-04T14:25:44.646Z,48.00
2017-07-04T14:28:11.157Z,50.10
2017-07-04T14:30:37.647Z,50.90
2017-07-04T14:33:04.163Z,51.20
2017-07-04T14:35:31.392Z,48.10
2017-07-04T14:37:57.882Z,48.10
2017-07-04T14:40:24.653Z,49.70
2017-07-04T14:42:51.251Z,49.10
2017-07-04T14:45:17.739Z,48.80
2017-07-04T14:47:44.299Z,47.50
2017-07-04T14:50:10.780Z,48.70
2017-07-04T14:52:37.255Z,49.00
2017-07-04T14:55:04.791Z,49.40
2017-07-04T14:57:31.287Z,49.40
2017-07-04T14:59:57.772Z,48.90
2017-07-04T15:02:25.020Z,49.60
2017-07-04T15:04:51.510Z,49.50
2017-07-04T15:07:18.106Z,50.70
2017-07-04T15:09:44.602Z,49.60
2017-07-04T15:12:11.050Z,47.30
2017-07-04T15:14:38.295Z,50.40
2017-07-04T15:17:04.781Z,49.80
2017-07-04T15:19:31.288Z,49.30
2017-07-04T15:21:57.818Z,50.20
2017-07-04T15:24:25.037Z,50.30
2017-07-04T15:26:51.581Z,50.20
2017-07-04T15:29:18.830Z,50.30
2017-07-04T15:31:45.333Z,50.30
2017-07-04T15:34:11.852Z,50.00
2017-07-04T15:36:38.340Z,49.10
2017-07-04T15:39:05.552Z,49.30
2017-07-04T15:41:32.070Z,49.30
2017-07-04T15:43:58.570Z,49.90
2017-07-04T15:46:25.064Z,49.60
2017-07-04T15:48:51.796Z,50.20
2017-07-04T15:51:18.361Z,50.60
2017-07-04T15:53:45.582Z,48.90
2017-07-04T15:56:12.115Z,48.90
2017-07-04T15:58:38.575Z,50.00
2017-07-04T16:01:06.133Z,49.40
2017-07-04T16:03:33.426Z,49.20
2017-07-04T16:06:00.407Z,49.20
2017-07-04T16:08:27.259Z,51.20
2017-07-04T16:10:54.610Z,51.60
2017-07-04T16:13:22.111Z,50.60
2017-07-04T16:15:48.862Z,50.50
2017-07-04T16:18:15.465Z,50.00
2017-07-04T16:20:42.020Z,49.40
2017-07-04T16:23:08.822Z,50.50
2017-07-04T16:25:35.388Z,51.40
2017-07-04T16:28:01.998Z,50.30
2017-07-04T16:30:29.308Z,50.80
2017-07-04T16:32:55.951Z,50.80
2017-07-04T16:35:23.308Z,52.00
2017-07-04T16:37:49.871Z,51.90
2017-07-04T16:40:16.505Z,53.00
2017-07-04T16:42:43.262Z,53.10
2017-07-04T16:45:09.902Z,51.90
2017-07-04T16:47:36.490Z,51.90
2017-07-04T16:50:03.866Z,51.00
2017-07-04T16:52:30.522Z,51.00
2017-07-04T16:54:57.846Z,52.50
2017-07-04T16:57:25.115Z,52.60
2017-07-04T16:59:52.415Z,53.50
2017-07-04T17:02:19.293Z,54.20
2017-07-04T17:04:46.761Z,54.30
2017-07-04T17:07:13.317Z,54.20
2017-07-04T17:09:40.018Z,51.90
2017-07-04T17:12:06.676Z,53.20
2017-07-04T17:14:33.326Z,51.60
2017-07-04T17:17:01.707Z,51.60
2017-07-04T17:19:28.350Z,52.60
2017-07-04T17:21:55.168Z,51.50
2017-07-04T17:24:21.815Z,52.00
2017-07-04T17:26:48.481Z,52.50
2017-07-04T17:29:15.482Z,52.50
2017-07-04T17:31:42.188Z,53.90
2017-07-04T17:34:08.768Z,53.60
2017-07-04T17:36:35.406Z,53.40
2017-07-04T17:39:02.264Z,53.00
2017-07-04T17:41:28.915Z,52.80
2017-07-04T17:43:55.755Z,53.60
2017-07-04T17:46:22.382Z,53.60
2017-07-04T17:48:56.007Z,53.30
2017-07-04T17:51:23.342Z,51.70
2017-07-04T17:53:50.148Z,51.60
2017-07-04T17:56:17.462Z,53.20
2017-07-04T17:58:46.389Z,53.20
2017-07-04T18:01:14.329Z,54.50
2017-07-04T18:03:41.825Z,54.60
2017-07-04T18:06:08.465Z,54.60
2017-07-04T18:08:35.173Z,54.80
2017-07-04T18:11:01.767Z,54.90
2017-07-04T18:13:28.278Z,54.60
2017-07-04T18:15:55.036Z,54.60
2017-07-04T18:18:21.524Z,56.20
2017-07-04T18:20:48.018Z,55.60
2017-07-04T18:23:14.669Z,56.00
2017-07-04T18:25:41.889Z,55.00
2017-07-04T18:28:08.357Z,55.00
2017-07-04T18:30:35.679Z,55.60
2017-07-04T18:33:02.151Z,55.50
2017-07-04T18:35:28.691Z,55.80
2017-07-04T18:37:55.173Z,56.60
2017-07-04T18:40:21.693Z,56.00
2017-07-04T18:42:48.241Z,56.80
2017-07-04T18:45:14.752Z,57.30
2017-07-04T18:47:41.223Z,57.60
2017-07-04T18:50:08.469Z,56.70
2017-07-04T18:52:34.941Z,57.00
2017-07-04T18:55:01.435Z,57.50
2017-07-04T18:57:28.006Z,58.00
2017-07-04T18:59:54.507Z,58.00
2017-07-04T19:02:21.739Z,58.60
2017-07-04T19:04:48.285Z,58.60
2017-07-04T19:07:15.645Z,58.50
2017-07-04T19:09:42.438Z,58.00
2017-07-04T19:12:08.957Z,57.40
2017-07-04T19:14:35.465Z,58.10
2017-07-04T19:17:02.001Z,57.90
2017-07-04T19:19:28.514Z,58.80
2017-07-04T19:21:55.929Z,60.00
2017-07-04T19:24:22.413Z,59.90
2017-07-04T19:26:49.641Z,60.10
2017-07-04T19:29:16.365Z,60.10
2017-07-04T19:31:42.911Z,60.30
2017-07-04T19:34:09.380Z,61.10
2017-07-04T19:36:35.910Z,61.80
2017-07-04T19:39:02.501Z,61.90
2017-07-04T19:41:28.967Z,62.50
2017-07-04T19:43:55.663Z,62.80
2017-07-04T19:46:22.158Z,63.10
2017-07-04T19:48:48.704Z,63.40
2017-07-04T19:51:15.226Z,63.50
2017-07-04T19:53:41.679Z,63.70
2017-07-04T19:56:08.227Z,63.90
2017-07-04T19:58:34.681Z,63.90
2017-07-04T20:01:01.172Z,64.30
2017-07-04T20:03:27.708Z,64.70
2017-07-04T20:05:54.214Z,64.90
2017-07-04T20:08:20.691Z,64.90
2017-07-04T20:10:48.208Z,66.40
2017-07-04T20:13:14.694Z,65.60
2017-07-04T20:15:41.189Z,66.00
2017-07-04T20:18:07.736Z,66.40
2017-07-04T20:20:34.193Z,66.60
2017-07-04T20:23:00.657Z,66.80
2017-07-04T20:25:27.924Z,67.20
2017-07-04T20:27:54.400Z,67.20
2017-07-04T20:30:21.012Z,67.40
2017-07-04T20:32:47.548Z,67.80
2017-07-04T20:35:14.109Z,67.80
2017-07-04T20:37:40.668Z,68.20
2017-07-04T20:40:07.969Z,68.50
2017-07-04T20:42:34.502Z,68.50
2017-07-04T20:45:00.990Z,68.70
2017-07-04T20:47:27.452Z,68.90
2017-07-04T20:49:53.985Z,69.20
2017-07-04T20:52:20.459Z,69.60
2017-07-04T20:54:46.991Z,69.70
2017-07-04T20:57:13.485Z,70.00
2017-07-04T20:59:40.014Z,70.00
2017-07-04T21:02:06.555Z,70.20
2017-07-04T21:04:33.020Z,70.40
2017-07-04T21:06:59.512Z,70.40
2017-07-04T21:09:26.050Z,70.70
2017-07-04T21:11:52.519Z,70.90
2017-07-04T21:14:19.062Z,71.20
2017-07-04T21:16:45.538Z,71.30
2017-07-04T21:19:12.053Z,71.50
2017-07-04T21:21:39.319Z,72.00
2017-07-04T21:24:05.818Z,71.80
2017-07-04T21:26:32.288Z,72.10
2017-07-04T21:28:58.795Z,72.10
2017-07-04T21:31:26.038Z,72.00
2017-07-04T21:33:53.295Z,72.80
2017-07-04T21:36:20.959Z,72.50
2017-07-04T21:38:49.053Z,72.40
2017-07-04T21:41:15.518Z,72.40
2017-07-04T21:43:42.028Z,72.50
2017-07-04T21:46:08.534Z,72.90
2017-07-04T21:48:35.210Z,73.00
2017-07-04T21:51:01.701Z,73.00
2017-07-04T21:53:28.950Z,73.20
2017-07-04T21:55:56.206Z,73.40
2017-07-04T21:58:23.431Z,73.50
2017-07-04T22:00:49.933Z,73.40
2017-07-04T22:03:16.422Z,73.50
2017-07-04T22:05:42.948Z,73.80
2017-07-04T22:08:10.240Z,74.60
2017-07-04T22:10:36.750Z,73.90
2017-07-04T22:13:03.290Z,73.90
2017-07-04T22:15:29.739Z,73.90
2017-07-04T22:17:56.291Z,74.10
2017-07-04T22:20:22.822Z,74.30
2017-07-04T22:22:49.323Z,74.40
2017-07-04T22:25:15.850Z,74.60
2017-07-04T22:27:42.330Z,74.60
2017-07-04T22:30:08.814Z,74.70
2017-07-04T22:32:35.312Z,74.80
2017-07-04T22:35:01.853Z,74.90
2017-07-04T22:37:29.117Z,75.30
2017-07-04T22:39:56.542Z,75.20
2017-07-04T22:42:23.055Z,75.20
2017-07-04T22:44:49.694Z,75.30
2017-07-04T22:47:16.230Z,75.40
2017-07-04T22:49:42.696Z,75.30
2017-07-04T22:52:10.203Z,75.50
2017-07-04T22:54:36.686Z,75.40
2017-07-04T22:57:03.923Z,75.50
2017-07-04T22:59:30.481Z,75.50
2017-07-04T23:01:56.974Z,75.70
2017-07-04T23:04:23.498Z,75.70
2017-07-04T23:06:49.978Z,75.70
2017-07-04T23:09:17.202Z,75.70
2017-07-04T23:11:43.756Z,75.70
2017-07-04T23:14:10.971Z,76.00
2017-07-04T23:16:37.478Z,76.00
2017-07-04T23:19:03.975Z,76.10
2017-07-04T23:21:31.183Z,76.30
2017-07-04T23:23:57.710Z,76.20
2017-07-04T23:26:24.233Z,76.30
2017-07-04T23:28:50.768Z,76.30
2017-07-04T23:31:17.288Z,76.40
2017-07-04T23:33:43.790Z,76.60
2017-07-04T23:36:10.306Z,76.60
2017-07-04T23:38:36.784Z,76.80
2017-07-04T23:41:03.310Z,76.80
2017-07-04T23:43:29.826Z,76.70
2017-07-04T23:45:56.312Z,76.80
2017-07-04T23:48:22.826Z,77.00
2017-07-04T23:50:49.345Z,77.00
2017-07-04T23:53:15.903Z,77.10
2017-07-04T23:55:42.468Z,77.10
2017-07-04T23:58:08.933Z,77.20
